createdAt,value
2018-12-09T00:04:46.546Z,9.29
2018-12-09T00:10:05.123Z,9.33
2018-12-09T00:15:22.607Z,9.06
2018-12-09T00:20:40.149Z,8.93
2018-12-09T00:25:57.681Z,8.93
2018-12-09T00:31:15.149Z,8.95
2018-12-09T00:36:32.635Z,9.03
2018-12-09T00:41:50.112Z,9.05
2018-12-09T00:47:07.686Z,8.99
2018-12-09T00:52:25.285Z,8.85
2018-12-09T00:57:42.813Z,8.60
2018-12-09T01:03:00.273Z,8.39
2018-12-09T01:08:17.799Z,8.16
2018-12-09T01:13:36.097Z,7.91
2018-12-09T01:18:53.592Z,7.50
2018-12-09T01:24:11.069Z,7.12
2018-12-09T01:29:28.543Z,6.77
2018-12-09T01:34:46.044Z,6.69
2018-12-09T01:40:04.996Z,6.64
2018-12-09T01:45:22.475Z,6.89
2018-12-09T01:50:39.948Z,7.12
2018-12-09T01:55:57.412Z,7.24
2018-12-09T02:01:14.917Z,7.31
2018-12-09T02:06:32.493Z,7.33
2018-12-09T02:11:50.188Z,7.39
2018-12-09T02:17:08.067Z,7.45
2018-12-09T02:22:25.553Z,7.58
2018-12-09T02:27:43.018Z,7.66
2018-12-09T02:33:00.494Z,7.76
2018-12-09T02:38:18.312Z,7.77
2018-12-09T02:43:35.890Z,7.79
2018-12-09T02:48:53.365Z,7.84
2018-12-09T02:54:10.927Z,7.86
2018-12-09T02:59:28.784Z,7.80
2018-12-09T03:04:46.351Z,7.75
2018-12-09T03:10:04.907Z,7.67
2018-12-09T03:15:22.474Z,7.69
2018-12-09T03:20:40.163Z,7.70
2018-12-09T03:25:57.689Z,7.68
2018-12-09T03:31:15.248Z,7.63
2018-12-09T03:36:32.739Z,7.58
2018-12-09T03:41:50.701Z,7.58
2018-12-09T03:47:08.177Z,7.50
2018-12-09T03:52:25.746Z,7.48
2018-12-09T03:57:43.216Z,7.25
2018-12-09T04:03:00.701Z,7.21
2018-12-09T04:08:18.169Z,7.21
2018-12-09T04:13:36.475Z,7.17
2018-12-09T04:18:53.945Z,7.18
2018-12-09T04:24:11.424Z,7.16
2018-12-09T04:29:28.960Z,7.14
2018-12-09T04:34:46.448Z,7.09
2018-12-09T04:40:05.221Z,7.05
2018-12-09T04:45:22.724Z,6.96
2018-12-09T04:50:40.200Z,7.02
2018-12-09T04:55:57.668Z,7.02
2018-12-09T05:01:17.198Z,7.05
2018-12-09T05:06:34.805Z,7.05
2018-12-09T05:11:52.325Z,7.06
2018-12-09T05:17:09.917Z,7.09
2018-12-09T05:22:27.807Z,7.13
2018-12-09T05:27:45.287Z,7.15
2018-12-09T05:33:02.808Z,7.13
2018-12-09T05:38:20.278Z,7.09
2018-12-09T05:43:37.738Z,7.06
2018-12-09T05:48:55.233Z,7.06
2018-12-09T05:54:12.713Z,7.06
2018-12-09T05:59:30.502Z,7.06
2018-12-09T06:04:48.029Z,7.14
2018-12-09T06:10:05.687Z,7.17
2018-12-09T06:15:23.217Z,7.18
2018-12-09T06:20:40.721Z,7.21
2018-12-09T06:25:59.090Z,7.14
2018-12-09T06:31:17.390Z,7.11
2018-12-09T06:36:34.866Z,7.01
2018-12-09T06:41:52.361Z,7.03
2018-12-09T06:47:09.825Z,7.05
2018-12-09T06:52:27.305Z,7.04
2018-12-09T06:57:46.066Z,7.08
2018-12-09T07:03:03.560Z,7.14
2018-12-09T07:08:21.033Z,7.16
2018-12-09T07:13:38.496Z,7.22
2018-12-09T07:18:55.970Z,7.24
2018-12-09T07:24:13.432Z,7.31
2018-12-09T07:29:30.892Z,7.36
2018-12-09T07:34:48.395Z,7.43
2018-12-09T07:40:08.844Z,7.48
2018-12-09T07:45:26.313Z,7.48
2018-12-09T07:50:43.787Z,7.49
2018-12-09T07:56:01.353Z,7.50
2018-12-09T08:01:18.818Z,7.52
2018-12-09T08:06:36.815Z,7.44
2018-12-09T08:11:54.278Z,7.45
2018-12-09T08:17:11.743Z,7.45
2018-12-09T08:22:29.200Z,7.43
2018-12-09T08:27:46.668Z,7.50
2018-12-09T08:33:04.322Z,7.42
2018-12-09T08:38:21.901Z,7.49
2018-12-09T08:43:39.364Z,7.50
2018-12-09T08:48:56.825Z,7.28
2018-12-09T08:54:14.517Z,7.25
2018-12-09T08:59:32.085Z,7.31
2018-12-09T09:04:49.549Z,7.35
2018-12-09T09:10:07.094Z,7.48
2018-12-09T09:15:24.588Z,7.56
2018-12-09T09:20:42.060Z,7.59
2018-12-09T09:25:59.524Z,7.64
2018-12-09T09:31:17.009Z,7.67
2018-12-09T09:36:34.582Z,7.68
2018-12-09T09:41:52.048Z,7.68
2018-12-09T09:47:10.705Z,7.67
2018-12-09T09:52:28.337Z,7.68
2018-12-09T09:57:45.784Z,7.76
2018-12-09T10:03:03.255Z,7.76
2018-12-09T10:08:20.727Z,7.81
2018-12-09T10:13:38.314Z,7.65
2018-12-09T10:18:55.793Z,7.68
2018-12-09T10:24:13.254Z,7.63
2018-12-09T10:29:30.712Z,7.66
2018-12-09T10:34:48.201Z,7.56
2018-12-09T10:40:06.159Z,7.58
2018-12-09T10:45:23.648Z,7.58
2018-12-09T10:50:41.106Z,7.61
2018-12-09T10:55:58.585Z,7.65
2018-12-09T11:01:21.704Z,7.08
2018-12-09T11:06:39.244Z,6.34
2018-12-09T11:11:56.718Z,6.22
2018-12-09T11:17:14.209Z,6.03
2018-12-09T11:22:31.760Z,5.97
2018-12-09T11:27:49.267Z,5.97
2018-12-09T11:33:06.729Z,5.94
2018-12-09T11:38:24.192Z,5.96
2018-12-09T11:43:41.653Z,5.92
2018-12-09T11:48:59.114Z,5.95
2018-12-09T11:54:16.607Z,5.98
2018-12-09T11:59:34.065Z,5.93
2018-12-09T12:04:51.531Z,5.99
2018-12-09T12:10:09.087Z,6.02
2018-12-09T12:15:26.562Z,6.16
2018-12-09T12:20:44.008Z,6.15
2018-12-09T12:26:02.918Z,6.34
2018-12-09T12:31:20.378Z,6.35
2018-12-09T12:36:37.839Z,6.50
2018-12-09T12:41:55.314Z,6.53
2018-12-09T12:47:12.793Z,6.51
2018-12-09T12:52:30.280Z,6.46
2018-12-09T12:57:47.735Z,6.51
2018-12-09T13:03:05.192Z,6.55
2018-12-09T13:08:22.671Z,6.52
2018-12-09T13:13:40.144Z,6.56
2018-12-09T13:18:57.599Z,6.49
2018-12-09T13:24:15.073Z,6.50
2018-12-09T13:29:32.533Z,6.47
2018-12-09T13:34:50.104Z,6.55
2018-12-09T13:40:07.564Z,6.62
2018-12-09T13:45:25.029Z,6.66
2018-12-09T13:50:42.572Z,6.66
2018-12-09T13:56:00.037Z,6.65
2018-12-09T14:01:17.507Z,6.69
2018-12-09T14:06:35.493Z,6.77
2018-12-09T14:11:53.197Z,6.85
2018-12-09T14:17:10.997Z,6.89
2018-12-09T14:22:28.449Z,6.93
2018-12-09T14:27:46.008Z,7.13
2018-12-09T14:33:03.585Z,6.98
2018-12-09T14:38:21.064Z,7.03
2018-12-09T14:43:38.549Z,7.12
2018-12-09T14:48:56.012Z,7.03
2018-12-09T14:54:13.488Z,7.04
2018-12-09T14:59:30.969Z,7.12
2018-12-09T15:04:48.433Z,7.15
2018-12-09T15:10:08.993Z,7.10
2018-12-09T15:15:25.864Z,7.07
2018-12-09T15:20:43.322Z,7.10
2018-12-09T15:26:01.058Z,7.04
2018-12-09T15:31:18.547Z,7.12
2018-12-09T15:36:36.026Z,7.11
2018-12-09T15:41:53.503Z,7.09
2018-12-09T15:47:11.014Z,7.05
2018-12-09T15:52:28.619Z,7.05
2018-12-09T15:57:46.087Z,7.01
2018-12-09T16:03:03.558Z,7.06
2018-12-09T16:08:21.066Z,7.11
2018-12-09T16:13:38.535Z,7.11
2018-12-09T16:18:56.051Z,7.12
2018-12-09T16:24:13.515Z,7.09
2018-12-09T16:29:31.071Z,7.05
2018-12-09T16:34:48.661Z,7.05
2018-12-09T16:40:06.326Z,6.98
2018-12-09T16:45:23.894Z,6.94
2018-12-09T16:50:41.442Z,6.90
2018-12-09T16:55:59.066Z,6.88
2018-12-09T17:01:16.555Z,6.88
2018-12-09T17:06:34.029Z,6.92
2018-12-09T17:11:51.513Z,6.90
2018-12-09T17:17:09.037Z,6.90
2018-12-09T17:22:26.531Z,6.89
2018-12-09T17:27:44.043Z,6.87
2018-12-09T17:33:01.510Z,6.86
2018-12-09T17:38:18.973Z,6.83
2018-12-09T17:43:36.451Z,6.80
2018-12-09T17:48:54.154Z,6.82
2018-12-09T17:54:11.640Z,6.77
2018-12-09T17:59:30.624Z,6.76
2018-12-09T18:04:48.139Z,6.75
2018-12-09T18:10:06.167Z,6.69
2018-12-09T18:15:24.477Z,6.66
2018-12-09T18:20:42.010Z,6.65
2018-12-09T18:25:59.679Z,6.65
2018-12-09T18:31:17.308Z,6.55
2018-12-09T18:36:34.944Z,6.52
2018-12-09T18:41:52.486Z,6.51
2018-12-09T18:47:11.911Z,6.47
2018-12-09T18:52:29.443Z,6.50
2018-12-09T18:57:46.956Z,6.52
2018-12-09T19:03:04.433Z,6.49
2018-12-09T19:08:21.917Z,6.52
2018-12-09T19:13:39.383Z,6.41
2018-12-09T19:18:57.004Z,6.36
2018-12-09T19:24:14.478Z,6.26
2018-12-09T19:29:31.957Z,6.23
2018-12-09T19:34:49.959Z,6.15
2018-12-09T19:40:07.530Z,6.13
2018-12-09T19:45:25.001Z,6.02
2018-12-09T19:50:42.535Z,5.93
2018-12-09T19:56:00.001Z,5.87
2018-12-09T20:01:17.479Z,5.77
2018-12-09T20:06:35.002Z,5.76
2018-12-09T20:11:52.467Z,5.69
2018-12-09T20:17:09.936Z,5.63
2018-12-09T20:22:27.427Z,5.58
2018-12-09T20:27:44.885Z,5.63
2018-12-09T20:33:02.429Z,5.60
2018-12-09T20:38:19.908Z,5.62
2018-12-09T20:43:37.613Z,5.59
2018-12-09T20:48:55.089Z,5.61
2018-12-09T20:54:12.557Z,5.58
2018-12-09T20:59:30.071Z,5.61
2018-12-09T21:04:47.533Z,5.63
2018-12-09T21:10:07.693Z,5.68
2018-12-09T21:15:25.157Z,5.66
2018-12-09T21:20:42.660Z,5.69
2018-12-09T21:26:00.137Z,5.71
2018-12-09T21:31:17.706Z,5.72
2018-12-09T21:36:35.167Z,5.67
2018-12-09T21:41:52.927Z,5.67
2018-12-09T21:47:10.427Z,5.59
2018-12-09T21:52:27.877Z,5.47
2018-12-09T21:57:45.350Z,5.46
2018-12-09T22:03:02.834Z,5.38
2018-12-09T22:08:20.301Z,5.30
2018-12-09T22:13:37.953Z,5.31
2018-12-09T22:18:55.704Z,5.36
2018-12-09T22:24:13.208Z,5.41
2018-12-09T22:29:30.677Z,5.45
2018-12-09T22:34:49.039Z,5.41
2018-12-09T22:40:07.549Z,5.38
2018-12-09T22:45:25.343Z,5.33
2018-12-09T22:50:42.821Z,5.30
2018-12-09T22:56:00.276Z,5.25
2018-12-09T23:01:19.295Z,5.23
2018-12-09T23:06:36.793Z,5.22
2018-12-09T23:11:54.523Z,5.16
2018-12-09T23:17:12.115Z,5.12
2018-12-09T23:22:29.582Z,5.19
2018-12-09T23:27:47.050Z,5.17
2018-12-09T23:33:04.562Z,5.10
2018-12-09T23:38:22.021Z,5.09
2018-12-09T23:43:39.487Z,5.09
2018-12-09T23:48:56.969Z,5.10
2018-12-09T23:54:14.421Z,5.03
2018-12-09T23:59:31.889Z,5.01
